world map with HSOB marked

HSOB - Airport

This information may not be accurate or current and is not valid for navigation or flight planning. No warranty of fitness for any purpose is made or implied.

flag of Sudan

Donate via PayPal

Additional information is available on the NEW Great Circle Mapper

Location
City:  El Obeid, North Kordofan, Sudan
ICAO / IATA:HSOB / EBD

Details
Type:Airport (Aerodrome, Airfield)
Use:Public/Civil
Latitude:13°09'12"N (13.153219)
Longitude:30°13'58"E (30.232675)
Datum:WGS 1984
Elevation:1927 ft (587 m)
Runways:1
Longest:9843 × 148 ft (3000 × 45 m)

Time
Timezone:UTC+2 (DST+4)
Local Time:

Weather
METAR:HSOB  041400Z 02009KT CAVOK 38/04 Q1008
TAF:HSOB  032300Z 0400/0506 36008G18KT CAVOK TEMPO 0405/0409 6000

Related Locations
Nearby:
Farthest:MVT: 12297 mi / 19789 km
Mataiva, PF

Find:

   beyond  
but within

Other Information
Maps:
Sources:

  


 


Great Circle Mapper   Great Circle Mapper
Great Circle Mapper FAQ   Great Circle Mapper FAQ
  Karl's Home Page
KLSē   KLSē Home
   GC on Facebook
Airlines of the World   Airlines of the World
Donate via PayPal


Copyright © 2004-2019, Karl L. Swartz. All rights reserved.
All trademarks mentioned herein belong to their respective owners.

Please see credits for attribution and copyright information.

Karl Swartz <karl@kls2.com>
  Powered by FreeBSD
Valid HTML 4.01!
Labeled with ICRA
hCard Microformat
Geo Microformat